createdAt,value
2022-08-26T01:17:16.153Z,9.05
2022-08-26T01:20:18.861Z,8.20
2022-08-26T01:23:08.974Z,9.38
2022-08-26T01:25:59.823Z,8.40
2022-08-26T01:28:50.693Z,8.40
2022-08-26T01:37:40.487Z,7.72
2022-08-26T01:40:33.432Z,7.60
2022-08-26T01:43:23.556Z,8.73
2022-08-26T01:46:10.711Z,8.38
2022-08-26T01:49:00.813Z,8.07
2022-08-26T02:09:08.770Z,8.02
2022-08-26T02:15:21.964Z,8.50
2022-08-26T02:18:08.797Z,8.82
2022-08-26T03:06:19.458Z,8.68
2022-08-26T03:18:07.949Z,7.32
2022-08-26T03:21:09.617Z,8.10
2022-08-26T03:30:24.425Z,9.25
2022-08-26T03:33:11.624Z,9.05
2022-08-26T03:35:57.920Z,9.10
2022-08-26T04:01:58.005Z,8.13
2022-08-26T04:44:10.134Z,9.30
2022-08-26T04:46:57.216Z,10.60
2022-08-26T04:49:55.499Z,10.00
2022-08-26T04:58:53.595Z,11.35
2022-08-26T05:16:49.264Z,9.77
2022-08-26T05:19:38.578Z,11.02
2022-08-26T05:22:33.520Z,10.85
2022-08-26T05:31:20.482Z,10.35
2022-08-26T05:58:54.503Z,10.85
2022-08-26T06:01:41.403Z,13.57
2022-08-26T06:13:43.332Z,11.38
2022-08-26T07:48:21.476Z,10.73
2022-08-26T08:00:12.914Z,11.00
2022-08-26T08:03:00.583Z,10.75
2022-08-26T08:05:46.491Z,12.60
2022-08-26T08:08:33.181Z,11.32
2022-08-26T08:11:23.422Z,11.60
2022-08-26T08:19:55.195Z,11.23
2022-08-26T08:22:42.495Z,12.05
2022-08-26T08:33:57.392Z,10.55
2022-08-26T08:40:18.640Z,10.45
2022-08-26T08:43:13.753Z,10.73
2022-08-26T08:46:08.249Z,11.65
2022-08-26T08:49:19.555Z,10.00
2022-08-26T08:52:23.488Z,10.40
2022-08-26T08:55:18.180Z,10.18
2022-08-26T08:58:10.495Z,10.57
2022-08-26T09:01:09.864Z,9.88
2022-08-26T09:04:13.690Z,11.27
2022-08-26T09:07:06.985Z,9.55
2022-08-26T09:09:59.318Z,10.38
2022-08-26T09:12:50.870Z,9.13
2022-08-26T09:19:00.324Z,8.65
2022-08-26T09:21:56.799Z,9.35
2022-08-26T09:24:48.287Z,8.35
2022-08-26T09:27:47.502Z,9.80
2022-08-26T09:30:38.114Z,8.18
2022-08-26T09:33:29.463Z,7.63
2022-08-26T09:36:26.568Z,7.63
2022-08-26T09:39:27.776Z,8.30
2022-08-26T09:42:22.865Z,8.27
2022-08-26T09:45:10.606Z,7.93
2022-08-26T09:48:01.252Z,9.00
2022-08-26T09:50:56.675Z,8.25
2022-08-26T09:54:24.424Z,9.02
2022-08-26T09:57:26.519Z,7.30
2022-08-26T10:00:38.556Z,8.18
2022-08-26T10:03:28.551Z,8.30
2022-08-26T10:06:17.698Z,8.10
2022-08-26T10:09:11.446Z,7.57
2022-08-26T10:12:01.072Z,7.53
2022-08-26T10:14:54.218Z,8.05
2022-08-26T10:18:00.232Z,8.30
2022-08-26T10:20:55.858Z,8.52
2022-08-26T10:24:07.008Z,7.78
2022-08-26T10:27:19.972Z,7.97
2022-08-26T10:30:11.146Z,15.40
2022-08-26T10:33:04.521Z,7.10
2022-08-26T10:36:52.426Z,7.03
2022-08-26T10:40:18.644Z,7.82
2022-08-26T10:43:26.523Z,6.75
2022-08-26T10:46:27.378Z,6.50
2022-08-26T10:49:16.004Z,6.57
2022-08-26T10:52:22.864Z,6.68
2022-08-26T10:55:29.673Z,6.18
2022-08-26T10:58:52.975Z,5.45
2022-08-26T11:01:47.225Z,5.97
2022-08-26T11:04:44.507Z,5.70
2022-08-26T11:22:36.223Z,7.03
2022-08-26T11:43:34.100Z,7.70
2022-08-26T11:46:28.051Z,6.65
2022-08-26T11:49:14.879Z,7.07
2022-08-26T11:55:01.893Z,6.90
2022-08-26T11:57:54.876Z,7.05
2022-08-26T12:01:09.582Z,7.57
2022-08-26T12:06:50.152Z,6.82
2022-08-26T12:09:52.811Z,6.65
2022-08-26T12:12:40.343Z,5.88
2022-08-26T12:15:29.741Z,6.13
2022-08-26T12:21:34.574Z,6.75
2022-08-26T12:33:51.192Z,7.72
2022-08-26T12:36:43.190Z,8.02
2022-08-26T12:39:40.459Z,7.40
2022-08-26T12:50:57.277Z,8.07
2022-08-26T12:53:44.410Z,8.32
2022-08-26T12:56:40.141Z,8.55
2022-08-26T12:59:26.867Z,8.15
2022-08-26T13:02:36.196Z,7.82
2022-08-26T13:05:25.567Z,8.63
2022-08-26T13:11:26.570Z,8.48
2022-08-26T13:20:02.683Z,8.27
2022-08-26T13:22:58.494Z,7.53
2022-08-26T13:25:45.438Z,7.72
2022-08-26T13:28:31.669Z,8.30
2022-08-26T13:31:20.008Z,7.55
2022-08-26T13:34:06.188Z,7.20
2022-08-26T13:36:54.508Z,7.70
2022-08-26T13:39:41.959Z,7.40
2022-08-26T13:48:14.559Z,7.35
2022-08-26T13:51:02.487Z,6.32
2022-08-26T13:59:47.007Z,7.20
2022-08-26T14:02:33.694Z,7.00
2022-08-26T14:05:20.050Z,7.35
2022-08-26T14:08:06.737Z,6.82
2022-08-26T14:10:52.878Z,7.10
2022-08-26T14:13:39.526Z,7.40
2022-08-26T14:23:12.999Z,6.90
2022-08-26T14:26:08.489Z,6.30
2022-08-26T14:29:03.131Z,6.35
2022-08-26T14:31:49.530Z,5.85
2022-08-26T14:35:07.359Z,6.20
2022-08-26T14:37:54.090Z,5.93
2022-08-26T14:40:44.799Z,6.07
2022-08-26T14:43:31.469Z,6.40
2022-08-26T14:46:18.486Z,6.70
2022-08-26T14:49:09.877Z,5.93
2022-08-26T14:51:56.793Z,5.78
2022-08-26T14:54:42.735Z,5.70
2022-08-26T15:03:44.827Z,5.78
2022-08-26T15:06:32.092Z,5.03
2022-08-26T15:09:20.889Z,4.93
2022-08-26T15:12:02.471Z,4.07
2022-08-26T15:14:48.756Z,3.83
2022-08-26T15:17:35.907Z,3.45
2022-08-26T15:20:21.896Z,3.10
2022-08-26T15:23:11.400Z,3.90
2022-08-26T15:28:45.024Z,3.03
2022-08-26T15:31:33.563Z,2.87
2022-08-26T15:34:20.145Z,3.05
2022-08-26T15:40:02.471Z,4.13
2022-08-26T15:42:54.420Z,4.03
2022-08-26T15:45:47.394Z,3.15
2022-08-26T15:51:32.047Z,3.78
2022-08-26T16:06:41.557Z,3.10
2022-08-26T16:50:25.291Z,4.15
2022-08-26T16:58:59.079Z,2.75
2022-08-26T17:01:54.515Z,2.95
2022-08-26T17:04:41.458Z,3.60
2022-08-26T17:07:32.179Z,3.20
2022-08-26T17:16:26.926Z,2.72
2022-08-26T17:22:26.569Z,3.42
2022-08-26T21:39:50.150Z,4.72
2022-08-26T22:17:38.150Z,3.40
2022-08-26T22:20:24.155Z,3.20
2022-08-26T22:23:10.641Z,3.30
2022-08-26T22:25:58.556Z,2.88
2022-08-26T22:37:32.808Z,3.45
2022-08-26T22:40:19.575Z,3.00
2022-08-26T22:43:06.600Z,2.97
2022-08-26T22:45:53.260Z,4.20
2022-08-26T22:48:39.698Z,3.35
2022-08-26T22:51:26.011Z,3.25
2022-08-26T22:54:12.751Z,3.67
2022-08-26T23:00:02.785Z,4.10
2022-08-26T23:02:48.945Z,3.58
2022-08-26T23:05:35.437Z,3.65
2022-08-26T23:08:21.966Z,3.42
2022-08-26T23:14:12.669Z,3.55
2022-08-26T23:16:58.737Z,3.00
2022-08-26T23:40:30.331Z,3.65
